Time;durP1;ratioP1;P1;durP2;ratioP2;P2;SDS_P1;SDS_P2;PMS_P1;PMS_P2;Temp;Humidity;BMP_temperature;BMP_pressure;BME280_temperature;BME280_humidity;BME280_pressure;Samples;Min_cycle;Max_cycle;Signal;HPM_P1;HPM_P2
2023/11/10 00:00:14;;;;;;;1.50;1.40;;;11.50;78.40;;;;;;4884619;29;20064;-79
2023/11/10 00:02:40;;;;;;;1.42;1.33;;;11.50;78.30;;;;;;4917596;29;20067;-82
2023/11/10 00:05:07;;;;;;;1.98;1.60;;;11.50;78.40;;;;;;4916264;29;20039;-78
2023/11/10 00:07:34;;;;;;;1.50;1.40;;;11.50;78.40;;;;;;4916625;29;20472;-78
2023/11/10 00:10:00;;;;;;;2.33;1.50;;;11.50;78.40;;;;;;4915609;29;20036;-82
2023/11/10 00:12:27;;;;;;;1.60;1.50;;;11.40;78.30;;;;;;4900928;29;20032;-78
2023/11/10 00:14:52;;;;;;;1.95;1.50;;;11.50;78.40;;;;;;4915599;29;20031;-78
2023/11/10 00:17:18;;;;;;;1.83;1.50;;;11.40;78.30;;;;;;4916906;29;20093;-78
2023/11/10 00:19:44;;;;;;;1.75;1.42;;;11.40;78.40;;;;;;4916913;29;20453;-78
2023/11/10 00:22:10;;;;;;;1.98;1.30;;;11.40;78.30;;;;;;4902586;29;20118;-79
2023/11/10 00:24:40;;;;;;;1.60;1.50;;;11.40;78.30;;;;;;4904055;29;20119;-80
2023/11/10 00:27:10;;;;;;;1.38;1.20;;;11.40;78.30;;;;;;4921222;29;20039;-81
2023/11/10 00:29:42;;;;;;;1.42;1.33;;;11.40;78.40;;;;;;4920023;29;20048;-78
2023/11/10 00:32:09;;;;;;;1.75;1.55;;;11.40;78.40;;;;;;4919322;29;20032;-77
2023/11/10 00:34:35;;;;;;;2.00;1.45;;;11.40;78.40;;;;;;4919628;29;20056;-78
2023/11/10 00:37:02;;;;;;;1.30;1.20;;;11.30;78.30;;;;;;4919387;29;20027;-78
2023/11/10 00:39:28;;;;;;;1.55;1.40;;;11.30;78.40;;;;;;4903957;29;20500;-80
2023/11/10 00:41:53;;;;;;;1.75;1.48;;;11.30;78.30;;;;;;4919359;29;20068;-78
2023/11/10 00:44:19;;;;;;;2.42;1.50;;;11.30;78.30;;;;;;4888248;29;20500;-78
2023/11/10 00:46:45;;;;;;;4.07;1.67;;;11.30;78.40;;;;;;4873211;29;20528;-78
2023/11/10 00:49:11;;;;;;;1.58;1.40;;;11.30;78.30;;;;;;4935112;29;20567;-78
2023/11/10 00:51:37;;;;;;;1.52;1.42;;;11.30;78.30;;;;;;4904191;29;20036;-79
2023/11/10 00:54:04;;;;;;;1.58;1.48;;;11.30;78.30;;;;;;4919253;29;20024;-79
2023/11/10 00:56:29;;;;;;;1.98;1.40;;;11.30;78.30;;;;;;4918972;29;20025;-79
2023/11/10 00:58:58;;;;;;;2.17;1.55;;;11.30;78.30;;;;;;4919101;29;20042;-79
2023/11/10 01:01:25;;;;;;;1.67;1.50;;;11.30;78.30;;;;;;4919368;29;20194;-78
2023/11/10 01:03:50;;;;;;;1.55;1.40;;;11.30;78.40;;;;;;4887787;29;20046;-78
2023/11/10 01:06:16;;;;;;;1.38;1.27;;;11.30;78.40;;;;;;4920750;29;20099;-79
2023/11/10 01:08:42;;;;;;;1.48;1.35;;;11.30;78.40;;;;;;4887866;29;20036;-78
2023/11/10 01:11:08;;;;;;;1.63;1.52;;;11.20;78.30;;;;;;4918636;29;20032;-79
2023/11/10 01:13:37;;;;;;;1.70;1.60;;;11.20;78.30;;;;;;4888485;29;20066;-77
2023/11/10 01:16:04;;;;;;;1.50;1.40;;;11.20;78.40;;;;;;4918848;29;20041;-78
2023/11/10 01:18:31;;;;;;;1.60;1.40;;;11.20;78.40;;;;;;4918676;29;20042;-78
2023/11/10 01:20:57;;;;;;;1.88;1.52;;;11.20;78.40;;;;;;4903467;29;20540;-78
2023/11/10 01:23:24;;;;;;;1.48;1.38;;;11.20;78.40;;;;;;4934583;29;20516;-79
2023/11/10 01:25:49;;;;;;;2.80;1.75;;;11.20;78.30;;;;;;4903396;29;20067;-78
2023/11/10 01:28:15;;;;;;;2.03;1.50;;;11.20;78.30;;;;;;4919143;29;20342;-78
2023/11/10 01:30:41;;;;;;;2.60;1.48;;;11.20;78.40;;;;;;4919553;29;20127;-78
2023/11/10 01:33:08;;;;;;;1.38;1.27;;;11.20;78.40;;;;;;4918056;29;20119;-78
2023/11/10 01:35:34;;;;;;;1.75;1.33;;;11.20;78.40;;;;;;4934051;29;20140;-79
2023/11/10 01:38:00;;;;;;;1.35;1.23;;;11.20;78.40;;;;;;4918801;29;20064;-78
2023/11/10 01:40:26;;;;;;;1.70;1.60;;;11.20;78.30;;;;;;4887043;29;20087;-81
2023/11/10 01:42:52;;;;;;;1.30;1.20;;;11.20;78.40;;;;;;4918364;29;20035;-77
2023/11/10 01:45:18;;;;;;;1.55;1.33;;;11.20;78.40;;;;;;4919127;29;20028;-79
2023/11/10 01:47:45;;;;;;;1.45;1.35;;;11.20;78.40;;;;;;4918504;29;20043;-78
2023/11/10 01:50:11;;;;;;;1.35;1.20;;;11.20;78.40;;;;;;4902938;29;20058;-78
2023/11/10 01:52:41;;;;;;;1.52;1.15;;;11.20;78.40;;;;;;4919833;29;20474;-78
2023/11/10 01:55:12;;;;;;;1.33;1.17;;;11.20;78.40;;;;;;4887139;29;20036;-78
2023/11/10 01:57:38;;;;;;;1.40;1.27;;;11.20;78.40;;;;;;4918347;29;20032;-80
2023/11/10 02:00:05;;;;;;;1.30;1.20;;;11.20;78.40;;;;;;4886030;29;20056;-80
2023/11/10 02:02:37;;;;;;;1.67;1.35;;;11.20;78.40;;;;;;4903097;29;20047;-79
2023/11/10 02:05:03;;;;;;;1.50;1.40;;;11.20;78.40;;;;;;4902143;29;20033;-78
2023/11/10 02:07:29;;;;;;;1.30;1.20;;;11.20;78.40;;;;;;4887386;29;20034;-79
2023/11/10 02:09:55;;;;;;;1.50;1.40;;;11.20;78.40;;;;;;4887034;29;20036;-79
2023/11/10 02:12:21;;;;;;;1.75;1.40;;;11.20;78.40;;;;;;4919646;29;20469;-77
2023/11/10 02:14:46;;;;;;;1.50;1.40;;;11.20;78.40;;;;;;4919287;29;20469;-77
2023/11/10 02:17:14;;;;;;;4.05;1.50;;;11.20;78.40;;;;;;4887218;29;20036;-79
2023/11/10 02:19:40;;;;;;;1.40;1.30;;;11.20;78.40;;;;;;4917766;29;20044;-79
2023/11/10 02:22:06;;;;;;;1.30;1.20;;;11.20;78.40;;;;;;4917643;29;20044;-78
2023/11/10 02:24:33;;;;;;;2.10;1.50;;;11.20;78.40;;;;;;4901889;29;20038;-77
2023/11/10 02:26:59;;;;;;;1.40;1.30;;;11.20;78.40;;;;;;4918838;29;20032;-78
2023/11/10 02:29:25;;;;;;;1.30;1.20;;;11.20;78.40;;;;;;4886386;29;20519;-79
2023/11/10 02:31:51;;;;;;;1.27;1.17;;;11.20;78.40;;;;;;4918762;29;20036;-78
2023/11/10 02:34:17;;;;;;;1.30;1.20;;;11.20;78.40;;;;;;4917376;29;20039;-78
2023/11/10 02:36:43;;;;;;;1.80;1.30;;;11.20;78.40;;;;;;4917701;29;20032;-78
2023/11/10 02:39:09;;;;;;;1.30;1.20;;;11.20;78.40;;;;;;4901532;29;20048;-79
2023/11/10 02:41:35;;;;;;;1.38;1.27;;;11.20;78.40;;;;;;4901617;29;20088;-78
2023/11/10 02:44:01;;;;;;;1.38;1.27;;;11.20;78.40;;;;;;4917836;29;20409;-78
2023/11/10 02:46:27;;;;;;;1.23;1.13;;;11.20;78.40;;;;;;4916441;29;20087;-78
2023/11/10 02:48:54;;;;;;;1.60;1.30;;;11.20;78.40;;;;;;4901708;29;20074;-78
2023/11/10 02:51:20;;;;;;;1.40;1.30;;;11.20;78.40;;;;;;4886092;29;20107;-78
2023/11/10 02:53:45;;;;;;;1.63;1.20;;;11.20;78.40;;;;;;4917118;29;20032;-78
2023/11/10 02:56:11;;;;;;;1.60;1.30;;;11.20;78.40;;;;;;4885473;29;20083;-80
2023/11/10 02:58:37;;;;;;;1.63;1.30;;;11.20;78.40;;;;;;4916967;29;20043;-78
2023/11/10 03:01:03;;;;;;;1.35;1.13;;;11.20;78.40;;;;;;4916555;29;20070;-78
2023/11/10 03:03:29;;;;;;;1.55;1.17;;;11.20;78.40;;;;;;4916963;29;20039;-77
2023/11/10 03:05:56;;;;;;;1.50;1.40;;;11.20;78.40;;;;;;4916992;29;20047;-79
2023/11/10 03:08:22;;;;;;;1.23;1.13;;;11.20;78.40;;;;;;4916561;29;20059;-78
2023/11/10 03:10:48;;;;;;;1.30;1.20;;;11.20;78.40;;;;;;4917059;29;20062;-79
2023/11/10 03:13:14;;;;;;;1.42;1.33;;;11.20;78.40;;;;;;4885519;29;20537;-77
2023/11/10 03:15:40;;;;;;;1.42;1.27;;;11.20;78.40;;;;;;4916600;29;20512;-78
2023/11/10 03:18:06;;;;;;;1.33;1.23;;;11.20;78.30;;;;;;4900917;29;20088;-79
2023/11/10 03:20:32;;;;;;;1.55;1.17;;;11.20;78.30;;;;;;4901087;29;20141;-79
2023/11/10 03:22:58;;;;;;;1.05;1.00;;;11.20;78.30;;;;;;4917796;29;20568;-79
2023/11/10 03:25:23;;;;;;;1.20;1.10;;;11.20;78.30;;;;;;4885615;29;20036;-78
2023/11/10 03:27:49;;;;;;;2.15;1.45;;;11.20;78.40;;;;;;4885913;29;20036;-78
2023/11/10 03:30:15;;;;;;;1.20;1.10;;;11.20;78.40;;;;;;4901700;29;20131;-80
2023/11/10 03:32:42;;;;;;;1.30;1.20;;;11.20;78.30;;;;;;4916576;29;20060;-78
2023/11/10 03:35:09;;;;;;;1.23;1.10;;;11.20;78.30;;;;;;4900998;29;20040;-78
2023/11/10 03:37:35;;;;;;;1.48;1.20;;;11.20;78.30;;;;;;4916489;29;20091;-78
2023/11/10 03:40:01;;;;;;;1.67;1.30;;;11.20;78.40;;;;;;4916460;29;20048;-80
2023/11/10 03:42:27;;;;;;;1.60;1.20;;;11.20;78.30;;;;;;4900626;29;20040;-78
2023/11/10 03:44:53;;;;;;;1.38;1.27;;;11.20;78.30;;;;;;4916324;29;20029;-78
2023/11/10 03:47:19;;;;;;;1.10;1.00;;;11.20;78.30;;;;;;4916161;29;20082;-78
2023/11/10 03:49:45;;;;;;;1.13;1.10;;;11.20;78.30;;;;;;4917722;29;20036;-78
2023/11/10 03:52:10;;;;;;;1.90;1.23;;;11.20;78.30;;;;;;4916153;29;20047;-80
2023/11/10 03:54:36;;;;;;;1.35;1.25;;;11.20;78.30;;;;;;4916093;29;20115;-78
2023/11/10 03:57:02;;;;;;;2.20;1.20;;;11.20;78.30;;;;;;4868852;29;20076;-78
2023/11/10 03:59:27;;;;;;;1.88;1.30;;;11.20;78.30;;;;;;4885741;29;20111;-78
2023/11/10 04:01:53;;;;;;;1.13;1.10;;;11.20;78.30;;;;;;4903777;29;20042;-79
2023/11/10 04:04:19;;;;;;;1.23;1.13;;;11.20;78.30;;;;;;4903140;29;20472;-78
2023/11/10 04:06:44;;;;;;;1.52;1.42;;;11.20;78.30;;;;;;4919256;29;20036;-78
2023/11/10 04:09:10;;;;;;;1.23;1.13;;;11.20;78.30;;;;;;4919183;29;20467;-78
2023/11/10 04:11:37;;;;;;;1.40;1.10;;;11.20;78.30;;;;;;4903817;29;20489;-78
2023/11/10 04:14:03;;;;;;;1.08;1.08;;;11.20;78.30;;;;;;4935867;29;20032;-79
2023/11/10 04:16:29;;;;;;;1.50;1.40;;;11.20;78.30;;;;;;4919434;29;20034;-78
2023/11/10 04:18:55;;;;;;;1.38;1.13;;;11.20;78.30;;;;;;4918635;29;20122;-78
2023/11/10 04:21:26;;;;;;;1.30;1.20;;;11.20;78.30;;;;;;4903500;29;20043;-78
2023/11/10 04:23:51;;;;;;;1.10;1.10;;;11.20;78.30;;;;;;4919312;29;20023;-79
2023/11/10 04:26:17;;;;;;;1.90;1.40;;;11.20;78.30;;;;;;4919072;29;20428;-78
2023/11/10 04:28:50;;;;;;;1.35;1.20;;;11.20;78.30;;;;;;4904026;29;20056;-78
2023/11/10 04:31:16;;;;;;;1.42;1.20;;;11.20;78.30;;;;;;4919609;29;20376;-78
2023/11/10 04:33:44;;;;;;;1.40;1.13;;;11.20;78.30;;;;;;4903575;29;20034;-79
2023/11/10 04:36:12;;;;;;;1.17;1.15;;;11.20;78.30;;;;;;4903833;29;20560;-78
2023/11/10 04:38:39;;;;;;;1.20;1.10;;;11.20;78.30;;;;;;4918867;29;20046;-78
2023/11/10 04:41:05;;;;;;;2.42;1.40;;;11.20;78.30;;;;;;4919558;29;20039;-79
2023/11/10 04:43:31;;;;;;;1.65;1.35;;;11.20;78.30;;;;;;4919877;29;20400;-78
2023/11/10 04:45:57;;;;;;;2.05;1.30;;;11.20;78.20;;;;;;4935938;29;20032;-80
2023/11/10 04:48:22;;;;;;;1.30;1.20;;;11.20;78.20;;;;;;4918836;29;20469;-79
2023/11/10 04:50:48;;;;;;;1.45;1.30;;;11.20;78.20;;;;;;4935882;29;20039;-78
2023/11/10 04:53:17;;;;;;;1.10;1.00;;;11.20;78.30;;;;;;4902862;29;20024;-79
2023/11/10 04:55:43;;;;;;;1.13;1.10;;;11.20;78.30;;;;;;4918880;29;20392;-80
2023/11/10 04:58:08;;;;;;;1.77;1.17;;;11.20;78.30;;;;;;4918967;29;20032;-77
2023/11/10 05:00:34;;;;;;;1.30;1.20;;;11.20;78.20;;;;;;4918602;29;20059;-77
2023/11/10 05:03:06;;;;;;;1.10;1.00;;;11.20;78.30;;;;;;4918689;29;20151;-78
2023/11/10 05:05:32;;;;;;;1.95;1.20;;;11.20;78.20;;;;;;4919622;29;20059;-79
2023/11/10 05:07:59;;;;;;;0.98;0.98;;;11.20;78.20;;;;;;4935921;29;20036;-78
2023/11/10 05:10:25;;;;;;;1.13;1.10;;;11.20;78.30;;;;;;4921943;29;20040;-79
2023/11/10 05:12:52;;;;;;;1.08;1.08;;;11.20;78.20;;;;;;4939939;29;20032;-80
2023/11/10 05:15:18;;;;;;;1.10;1.10;;;11.20;78.20;;;;;;4922072;29;20551;-78
2023/11/10 05:17:44;;;;;;;1.20;1.10;;;11.20;78.20;;;;;;4922150;29;20107;-78
2023/11/10 05:20:11;;;;;;;1.13;1.00;;;11.20;78.20;;;;;;4906052;29;20040;-80
2023/11/10 05:22:39;;;;;;;1.20;1.10;;;11.20;78.20;;;;;;4922026;29;20040;-79
2023/11/10 05:25:06;;;;;;;1.27;1.15;;;11.20;78.20;;;;;;4938713;29;20060;-78
2023/11/10 05:27:32;;;;;;;1.25;1.15;;;11.20;78.20;;;;;;4921952;29;20074;-80
2023/11/10 05:29:58;;;;;;;1.20;1.10;;;11.20;78.20;;;;;;4921438;29;20040;-78
2023/11/10 05:32:24;;;;;;;1.30;1.20;;;11.20;78.20;;;;;;4938968;29;20086;-81
2023/11/10 05:34:50;;;;;;;1.38;1.17;;;11.20;78.20;;;;;;4921649;29;20477;-85
2023/11/10 05:37:20;;;;;;;1.10;1.10;;;11.20;78.20;;;;;;4906655;29;20054;-78
2023/11/10 05:39:46;;;;;;;1.20;1.10;;;11.20;78.20;;;;;;4921847;29;20102;-76
2023/11/10 05:42:13;;;;;;;1.05;1.00;;;11.20;78.20;;;;;;4921921;29;20046;-77
2023/11/10 05:44:40;;;;;;;1.00;1.00;;;11.20;78.20;;;;;;4921617;29;20465;-77
2023/11/10 05:47:06;;;;;;;1.95;1.20;;;11.20;78.20;;;;;;4921785;29;20046;-78
2023/11/10 05:49:33;;;;;;;1.15;1.05;;;11.20;78.20;;;;;;4921681;29;20038;-77
2023/11/10 05:51:59;;;;;;;1.10;1.10;;;11.20;78.20;;;;;;4938745;29;20032;-77
2023/11/10 05:54:25;;;;;;;1.10;1.10;;;11.20;78.20;;;;;;4906404;29;20036;-77
2023/11/10 05:56:53;;;;;;;1.10;1.10;;;11.20;78.20;;;;;;4921364;29;20040;-78
2023/11/10 05:59:21;;;;;;;1.15;1.00;;;11.20;78.20;;;;;;4937884;29;20024;-79
2023/11/10 06:01:48;;;;;;;1.83;1.27;;;11.20;78.20;;;;;;4921206;29;20078;-79
2023/11/10 06:04:17;;;;;;;1.33;1.13;;;11.20;78.20;;;;;;4921233;29;20110;-79
2023/11/10 06:06:46;;;;;;;1.13;1.02;;;11.20;78.20;;;;;;4921420;29;20039;-80
2023/11/10 06:09:12;;;;;;;1.48;1.25;;;11.20;78.20;;;;;;4937849;29;20067;-82
2023/11/10 06:11:38;;;;;;;1.15;1.05;;;11.20;78.20;;;;;;4904882;29;20027;-80
2023/11/10 06:14:04;;;;;;;1.10;1.00;;;11.20;78.20;;;;;;4920912;29;20086;-80
2023/11/10 06:16:30;;;;;;;1.35;1.25;;;11.20;78.20;;;;;;4921540;29;20036;-79
2023/11/10 06:18:58;;;;;;;1.30;1.20;;;11.20;78.20;;;;;;4920741;29;20031;-81
2023/11/10 06:21:24;;;;;;;1.58;1.20;;;11.20;78.20;;;;;;4921182;29;20130;-79
2023/11/10 06:23:50;;;;;;;1.50;1.15;;;11.20;78.20;;;;;;4905463;29;20063;-78
2023/11/10 06:26:20;;;;;;;1.35;1.10;;;11.20;78.20;;;;;;4920794;29;20035;-79
2023/11/10 06:28:52;;;;;;;1.90;1.20;;;11.20;78.20;;;;;;4905460;29;20040;-78
2023/11/10 06:31:21;;;;;;;1.10;1.10;;;11.10;78.70;;;;;;4921162;29;20042;-79
2023/11/10 06:33:50;;;;;;;1.13;1.10;;;11.20;78.20;;;;;;4920734;29;20038;-79
2023/11/10 06:36:19;;;;;;;1.30;1.20;;;11.20;78.20;;;;;;4921494;29;20035;-77
2023/11/10 06:38:46;;;;;;;1.15;1.08;;;11.20;78.20;;;;;;4920553;29;20043;-79
2023/11/10 06:41:13;;;;;;;1.10;1.08;;;11.10;78.20;;;;;;4905691;29;20031;-78
2023/11/10 06:43:39;;;;;;;1.30;1.20;;;11.10;78.20;;;;;;4920820;29;20380;-79
2023/11/10 06:46:05;;;;;;;1.75;1.20;;;11.10;78.20;;;;;;4920357;29;20054;-80
2023/11/10 06:48:31;;;;;;;1.50;1.02;;;11.10;78.20;;;;;;4904749;29;20042;-79
2023/11/10 06:50:57;;;;;;;1.00;1.00;;;11.10;78.20;;;;;;4904830;29;20036;-79
2023/11/10 06:53:22;;;;;;;1.25;1.13;;;11.10;78.10;;;;;;4904674;29;20464;-79
2023/11/10 06:55:49;;;;;;;1.63;1.33;;;11.10;78.20;;;;;;4904858;29;20027;-78
2023/11/10 06:58:15;;;;;;;1.98;1.13;;;11.10;78.20;;;;;;4920119;29;20118;-79
2023/11/10 07:00:45;;;;;;;1.48;1.00;;;11.10;78.20;;;;;;4919590;29;20060;-79
2023/11/10 07:03:14;;;;;;;1.13;1.05;;;11.10;78.20;;;;;;4920571;29;20473;-79
2023/11/10 07:05:40;;;;;;;1.27;1.17;;;11.10;78.20;;;;;;4905219;29;20126;-79
2023/11/10 07:08:09;;;;;;;1.00;1.00;;;11.00;78.10;;;;;;4919814;29;20468;-79
2023/11/10 07:10:44;;;;;;;1.20;1.10;;;11.00;78.10;;;;;;4920412;29;20035;-81
2023/11/10 07:13:16;;;;;;;1.27;1.17;;;11.00;78.20;;;;;;4920420;29;20425;-83
2023/11/10 07:15:42;;;;;;;1.25;1.15;;;11.00;78.10;;;;;;4888915;29;20079;-81
2023/11/10 07:18:08;;;;;;;1.50;1.15;;;11.00;78.10;;;;;;4919930;29;20032;-80
2023/11/10 07:20:34;;;;;;;1.30;1.20;;;11.00;78.20;;;;;;4936627;29;20039;-80
2023/11/10 07:23:00;;;;;;;1.30;1.20;;;11.00;78.20;;;;;;4919839;29;20044;-78
2023/11/10 07:25:28;;;;;;;1.10;1.02;;;11.00;78.20;;;;;;4920144;29;20038;-79
2023/11/10 07:27:54;;;;;;;1.30;1.10;;;11.00;78.20;;;;;;4919824;29;20028;-78
2023/11/10 07:30:22;;;;;;;1.27;1.08;;;11.00;78.20;;;;;;4904190;29;20114;-80
2023/11/10 07:32:50;;;;;;;1.42;1.10;;;11.00;78.20;;;;;;4919425;29;20032;-79
2023/11/10 07:35:20;;;;;;;1.20;1.10;;;11.00;78.20;;;;;;4920677;29;20035;-78
2023/11/10 07:37:46;;;;;;;1.58;1.25;;;10.90;78.10;;;;;;4904060;29;20123;-79
2023/11/10 07:40:13;;;;;;;1.30;1.20;;;10.90;78.10;;;;;;4919815;29;20123;-79
2023/11/10 07:42:43;;;;;;;1.63;1.30;;;10.90;78.10;;;;;;4920345;29;20039;-79
2023/11/10 07:45:16;;;;;;;1.58;1.30;;;10.90;78.10;;;;;;4888607;29;20032;-79
2023/11/10 07:47:49;;;;;;;1.48;1.00;;;10.90;78.10;;;;;;4904599;29;20035;-78
2023/11/10 07:50:16;;;;;;;1.90;1.20;;;10.90;78.20;;;;;;4919426;29;20036;-78
2023/11/10 07:52:42;;;;;;;1.42;1.10;;;10.90;78.10;;;;;;4919659;29;20031;-80
2023/11/10 07:55:09;;;;;;;1.15;1.15;;;10.90;78.10;;;;;;4904430;29;20044;-81
2023/11/10 07:57:36;;;;;;;1.48;1.23;;;10.90;78.20;;;;;;4935576;29;20028;-79
2023/11/10 08:00:06;;;;;;;1.52;1.30;;;10.90;78.20;;;;;;4915955;29;20139;-79
2023/11/10 08:02:37;;;;;;;1.92;1.33;;;10.90;78.20;;;;;;4917337;29;20119;-79
2023/11/10 08:05:04;;;;;;;1.48;1.27;;;10.90;78.10;;;;;;4885652;29;20469;-79
2023/11/10 08:07:30;;;;;;;1.85;1.23;;;10.90;78.10;;;;;;4916251;29;20119;-79
2023/11/10 08:09:56;;;;;;;1.20;1.10;;;10.90;78.20;;;;;;4900935;29;20059;-80
2023/11/10 08:12:23;;;;;;;1.20;1.10;;;10.90;78.10;;;;;;4916545;29;20024;-79
2023/11/10 08:14:50;;;;;;;1.17;1.10;;;10.90;78.10;;;;;;4916509;29;20063;-79
2023/11/10 08:17:16;;;;;;;1.33;1.17;;;10.90;78.10;;;;;;4916041;29;20086;-79
2023/11/10 08:19:42;;;;;;;1.40;1.25;;;11.00;78.20;;;;;;4916824;29;20040;-79
2023/11/10 08:22:08;;;;;;;1.23;1.13;;;10.90;78.10;;;;;;4916879;29;20131;-80
2023/11/10 08:24:35;;;;;;;1.63;1.23;;;10.90;78.10;;;;;;4885505;29;20039;-79
2023/11/10 08:27:01;;;;;;;1.35;1.15;;;11.00;78.20;;;;;;4915844;29;20503;-79
2023/11/10 08:29:26;;;;;;;1.70;1.10;;;11.00;78.20;;;;;;4900339;29;20040;-80
2023/11/10 08:31:53;;;;;;;1.10;1.10;;;11.00;78.20;;;;;;4884779;29;20036;-79
2023/11/10 08:34:21;;;;;;;1.30;1.20;;;11.00;78.20;;;;;;4900214;29;20029;-77
2023/11/10 08:36:50;;;;;;;1.85;1.30;;;10.90;78.10;;;;;;4916100;29;20091;-78
2023/11/10 08:39:20;;;;;;;1.80;1.25;;;11.00;78.20;;;;;;4884906;29;20401;-78
2023/11/10 08:41:49;;;;;;;1.48;1.05;;;11.00;78.20;;;;;;4900236;29;20052;-78
2023/11/10 08:44:16;;;;;;;1.55;1.30;;;11.00;78.20;;;;;;4917836;29;20128;-78
2023/11/10 08:46:44;;;;;;;1.45;1.27;;;11.00;78.20;;;;;;4904782;29;20380;-79
2023/11/10 08:49:11;;;;;;;1.55;1.20;;;11.00;78.20;;;;;;4919440;29;20047;-78
2023/11/10 08:51:38;;;;;;;1.98;1.30;;;11.00;78.20;;;;;;4919841;29;20056;-78
2023/11/10 08:54:04;;;;;;;1.75;1.20;;;11.00;78.20;;;;;;4873192;29;20032;-80
2023/11/10 08:56:30;;;;;;;1.83;1.20;;;11.00;78.10;;;;;;4888102;29;20039;-79
2023/11/10 08:58:56;;;;;;;1.45;1.10;;;11.00;78.10;;;;;;4919324;29;20036;-79
2023/11/10 09:01:22;;;;;;;2.92;1.40;;;11.00;78.20;;;;;;4918729;29;20048;-77
2023/11/10 09:03:48;;;;;;;1.38;1.27;;;11.10;78.20;;;;;;4888624;29;20047;-78
2023/11/10 09:06:14;;;;;;;1.35;1.17;;;11.00;78.10;;;;;;4919078;29;20044;-77
2023/11/10 09:08:41;;;;;;;1.23;1.13;;;11.10;78.20;;;;;;4920116;29;20127;-79
2023/11/10 09:11:07;;;;;;;1.30;1.20;;;11.10;78.20;;;;;;4887979;29;20040;-77
2023/11/10 09:13:33;;;;;;;1.65;1.20;;;11.10;78.20;;;;;;4918555;29;20087;-77
2023/11/10 09:16:00;;;;;;;2.17;1.40;;;11.10;78.20;;;;;;4919360;29;20047;-78
2023/11/10 09:18:27;;;;;;;1.10;1.10;;;11.10;78.20;;;;;;4904143;29;20032;-77
2023/11/10 09:20:53;;;;;;;1.05;1.05;;;11.10;78.10;;;;;;4920458;29;20044;-77
2023/11/10 09:23:19;;;;;;;1.40;1.30;;;11.10;78.10;;;;;;4903957;29;20123;-77
2023/11/10 09:25:44;;;;;;;1.73;1.25;;;11.10;78.10;;;;;;4903643;29;20041;-77
2023/11/10 09:28:11;;;;;;;2.20;1.33;;;11.10;78.10;;;;;;4904187;29;20413;-77
2023/11/10 09:30:37;;;;;;;1.30;1.20;;;11.10;78.10;;;;;;4888791;29;20040;-77
2023/11/10 09:33:03;;;;;;;1.30;1.20;;;11.10;78.10;;;;;;4919423;29;20033;-77
2023/11/10 09:35:28;;;;;;;1.55;1.15;;;11.20;78.20;;;;;;4903593;29;20135;-77
2023/11/10 09:37:56;;;;;;;1.73;1.10;;;11.20;78.20;;;;;;4903820;29;20095;-77
2023/11/10 09:40:23;;;;;;;2.70;1.50;;;11.20;78.20;;;;;;4904450;29;20497;-77
2023/11/10 09:42:49;;;;;;;1.95;1.20;;;11.20;78.20;;;;;;4918676;29;20088;-77
2023/11/10 09:45:15;;;;;;;2.08;1.17;;;11.20;78.10;;;;;;4919246;29;20036;-77
2023/11/10 09:47:41;;;;;;;1.00;1.00;;;11.20;78.10;;;;;;4919035;29;20099;-77
2023/11/10 09:50:09;;;;;;;1.45;1.25;;;11.20;78.10;;;;;;4919311;29;20442;-77
2023/11/10 09:52:36;;;;;;;2.03;1.30;;;11.20;78.10;;;;;;4918696;29;20032;-78
2023/11/10 09:55:02;;;;;;;1.63;1.10;;;11.20;78.10;;;;;;4918620;29;20032;-77
2023/11/10 09:57:28;;;;;;;2.67;1.30;;;11.30;78.20;;;;;;4902603;29;20133;-78
2023/11/10 09:59:56;;;;;;;1.35;1.23;;;11.30;78.20;;;;;;4902773;29;20437;-77
2023/11/10 10:02:22;;;;;;;1.67;1.23;;;11.30;78.20;;;;;;4918624;29;20091;-78
2023/11/10 10:04:48;;;;;;;1.45;1.30;;;11.30;78.10;;;;;;4919518;29;20044;-78
2023/11/10 10:07:17;;;;;;;1.35;1.23;;;11.30;78.10;;;;;;4921744;29;20532;-77
2023/11/10 10:09:44;;;;;;;1.27;1.17;;;11.30;78.20;;;;;;4920132;29;20477;-78
2023/11/10 10:12:12;;;;;;;1.73;1.40;;;11.40;78.20;;;;;;4903579;29;20036;-78
2023/11/10 10:14:52;;;;;;;1.30;1.15;;;11.30;78.20;;;;;;4903044;29;20036;-75
2023/11/10 10:17:18;;;;;;;1.35;1.17;;;11.40;78.30;;;;;;4918760;29;20035;-76
2023/11/10 10:19:46;;;;;;;2.00;1.20;;;11.40;78.80;;;;;;4902973;29;20048;-76
2023/11/10 10:22:22;;;;;;;1.55;1.20;;;11.40;78.20;;;;;;4918609;29;20062;-76
2023/11/10 10:24:48;;;;;;;1.92;1.23;;;11.40;78.20;;;;;;4918694;29;20036;-77
2023/11/10 10:27:14;;;;;;;1.35;1.20;;;11.40;78.20;;;;;;4918651;29;20083;-78
2023/11/10 10:29:40;;;;;;;1.75;1.30;;;11.40;78.20;;;;;;4919680;29;20059;-79
2023/11/10 10:32:06;;;;;;;1.40;1.25;;;11.50;78.20;;;;;;4902599;29;20039;-78
2023/11/10 10:34:32;;;;;;;1.45;1.10;;;11.50;78.20;;;;;;4918752;29;20469;-77
2023/11/10 10:36:58;;;;;;;1.80;1.30;;;11.50;78.20;;;;;;4887188;29;20380;-77
2023/11/10 10:39:26;;;;;;;1.20;1.10;;;11.50;78.20;;;;;;4902661;29;20052;-77
2023/11/10 10:41:54;;;;;;;2.35;1.50;;;11.50;78.20;;;;;;4903238;29;20028;-77
2023/11/10 10:44:20;;;;;;;2.08;1.48;;;11.50;78.20;;;;;;4903852;29;20032;-78
2023/11/10 10:46:48;;;;;;;1.35;1.17;;;11.60;78.20;;;;;;4903966;29;20489;-75
2023/11/10 10:49:15;;;;;;;1.38;1.27;;;11.50;78.20;;;;;;4921818;29;20456;-75
2023/11/10 10:51:43;;;;;;;1.48;1.05;;;11.60;78.20;;;;;;4919415;29;20473;-78
2023/11/10 10:54:13;;;;;;;1.35;1.10;;;11.60;78.20;;;;;;4903075;29;20028;-75
2023/11/10 10:56:39;;;;;;;1.67;1.33;;;11.60;78.20;;;;;;4917869;29;20043;-78
2023/11/10 10:59:07;;;;;;;1.02;1.02;;;11.60;78.20;;;;;;4902212;29;20489;-76
2023/11/10 11:01:34;;;;;;;1.48;1.20;;;11.60;78.20;;;;;;4917899;29;20078;-77
2023/11/10 11:04:09;;;;;;;2.22;1.30;;;11.60;78.20;;;;;;4918390;29;20380;-78
2023/11/10 11:06:58;;;;;;;1.20;1.10;;;11.60;78.20;;;;;;4919289;29;20477;-78
2023/11/10 11:09:58;;;;;;;1.13;1.00;;;11.70;78.20;;;;;;4918060;29;20039;-77
2023/11/10 11:12:33;;;;;;;1.23;1.10;;;11.70;78.20;;;;;;4918478;29;20035;-75
2023/11/10 11:15:08;;;;;;;1.63;1.20;;;11.60;78.00;;;;;;4917367;29;20028;-75
2023/11/10 11:17:42;;;;;;;1.10;1.00;;;11.70;78.10;;;;;;4919341;29;20111;-74
2023/11/10 11:20:12;;;;;;;2.28;1.48;;;11.70;78.10;;;;;;4917641;29;20071;-74
2023/11/10 11:22:39;;;;;;;2.20;1.05;;;11.70;78.10;;;;;;4916929;29;20108;-75
2023/11/10 11:25:09;;;;;;;1.20;1.10;;;11.70;78.10;;;;;;4917264;29;20516;-75
2023/11/10 11:27:36;;;;;;;1.20;1.10;;;11.70;78.20;;;;;;4918306;29;20084;-75
2023/11/10 11:30:12;;;;;;;1.23;1.10;;;11.70;78.10;;;;;;4917096;29;20087;-75
2023/11/10 11:32:41;;;;;;;1.42;1.10;;;11.70;78.10;;;;;;4917216;29;20479;-77
2023/11/10 11:35:15;;;;;;;1.50;1.05;;;11.70;78.10;;;;;;4918388;29;20036;-74
2023/11/10 11:37:45;;;;;;;1.20;1.10;;;11.80;78.20;;;;;;4917205;29;20036;-75
2023/11/10 11:40:12;;;;;;;1.08;1.00;;;11.80;78.10;;;;;;4917564;29;20048;-76
2023/11/10 11:42:40;;;;;;;1.48;1.10;;;11.70;78.10;;;;;;4916736;29;20024;-77
2023/11/10 11:45:16;;;;;;;1.17;1.10;;;11.80;78.20;;;;;;4917455;29;20036;-75
2023/11/10 11:47:42;;;;;;;1.20;1.10;;;11.80;78.20;;;;;;4916749;29;20087;-75
2023/11/10 11:50:09;;;;;;;1.20;1.10;;;11.80;78.10;;;;;;4917801;29;20042;-75
2023/11/10 11:52:35;;;;;;;1.35;1.25;;;11.80;78.10;;;;;;4917029;29;20032;-75
2023/11/10 11:55:02;;;;;;;1.20;1.10;;;11.80;78.20;;;;;;4901480;29;20051;-76
2023/11/10 11:57:32;;;;;;;1.67;1.17;;;11.80;78.10;;;;;;4900992;29;20048;-76
2023/11/10 11:59:58;;;;;;;1.33;1.23;;;11.80;78.10;;;;;;4901108;29;20043;-75
2023/11/10 12:02:24;;;;;;;2.03;1.20;;;11.80;78.10;;;;;;4917337;29;20480;-75
2023/11/10 12:04:49;;;;;;;1.10;1.10;;;11.80;78.10;;;;;;4901019;29;20047;-75
2023/11/10 12:07:18;;;;;;;1.35;1.25;;;11.80;78.10;;;;;;4916683;29;20040;-75
2023/11/10 12:09:44;;;;;;;1.10;1.10;;;11.80;78.10;;;;;;4916754;29;20053;-75
2023/11/10 12:12:10;;;;;;;1.48;1.10;;;11.80;78.10;;;;;;4901221;29;20614;-75
2023/11/10 12:14:36;;;;;;;1.65;1.13;;;11.80;78.10;;;;;;4916025;29;20556;-75
2023/11/10 12:17:02;;;;;;;1.23;1.13;;;11.80;78.10;;;;;;4917870;29;20164;-76
2023/11/10 12:19:28;;;;;;;1.10;1.00;;;11.80;78.10;;;;;;4904457;29;20135;-75
2023/11/10 12:21:53;;;;;;;1.58;1.15;;;11.80;78.10;;;;;;4904286;29;20110;-76
2023/11/10 12:24:26;;;;;;;1.15;1.05;;;11.80;78.10;;;;;;4920397;29;20035;-75
2023/11/10 12:26:52;;;;;;;1.27;1.08;;;11.80;78.80;;;;;;4920032;29;20048;-75
2023/11/10 12:29:26;;;;;;;1.17;1.00;;;11.80;78.10;;;;;;4920625;29;20051;-75
2023/11/10 12:31:52;;;;;;;1.67;1.15;;;11.80;78.10;;;;;;4921462;29;20080;-75
2023/11/10 12:34:18;;;;;;;1.73;1.35;;;11.80;78.10;;;;;;4920232;29;20058;-75
2023/11/10 12:36:46;;;;;;;1.23;1.13;;;11.80;78.10;;;;;;4921491;29;20044;-75
2023/11/10 12:39:18;;;;;;;1.08;1.08;;;11.80;78.10;;;;;;4920056;29;20088;-75
2023/11/10 12:41:45;;;;;;;1.20;1.10;;;11.80;78.10;;;;;;4919787;29;20024;-75
2023/11/10 12:44:16;;;;;;;1.85;1.25;;;11.80;78.10;;;;;;4921174;29;20081;-75
2023/11/10 12:46:53;;;;;;;1.48;1.30;;;11.80;78.10;;;;;;4920652;29;20100;-75